createdAt,value
2022-10-21T00:00:08.201Z,8.48
2022-10-21T00:02:38.807Z,8.42
2022-10-21T00:05:09.956Z,8.50
2022-10-21T00:07:40.723Z,8.49
2022-10-21T00:10:11.746Z,8.54
2022-10-21T00:12:42.219Z,8.58
2022-10-21T00:15:12.819Z,8.56
2022-10-21T00:17:44.134Z,8.60
2022-10-21T00:20:14.870Z,8.56
2022-10-21T00:22:45.375Z,8.60
2022-10-21T00:25:15.824Z,8.66
2022-10-21T00:27:46.284Z,8.60
2022-10-21T00:30:16.611Z,8.60
2022-10-21T00:32:46.971Z,8.50
2022-10-21T00:35:17.449Z,8.52
2022-10-21T00:37:47.816Z,8.49
2022-10-21T00:40:18.187Z,8.56
2022-10-21T00:42:48.802Z,8.54
2022-10-21T00:45:25.113Z,8.56
2022-10-21T00:48:16.739Z,8.62
2022-10-21T00:50:56.337Z,8.56
2022-10-21T00:53:27.794Z,8.56
2022-10-21T00:56:01.206Z,8.54
2022-10-21T00:58:34.508Z,8.48
2022-10-21T01:01:07.752Z,8.54
2022-10-21T01:03:38.112Z,8.52
2022-10-21T01:06:11.179Z,8.51
2022-10-21T01:08:41.831Z,8.42
2022-10-21T01:11:18.116Z,8.47
2022-10-21T01:14:19.724Z,8.48
2022-10-21T01:17:11.582Z,8.44
2022-10-21T01:19:56.455Z,8.42
2022-10-21T01:22:58.923Z,8.34
2022-10-21T01:25:41.193Z,8.36
2022-10-21T01:28:29.532Z,8.34
2022-10-21T01:31:05.621Z,8.36
2022-10-21T01:33:41.775Z,8.36
2022-10-21T01:36:30.128Z,8.34
2022-10-21T01:39:21.622Z,8.40
2022-10-21T01:41:55.186Z,8.38
2022-10-21T01:44:46.826Z,8.44
2022-10-21T01:47:20.517Z,8.46
2022-10-21T01:50:05.669Z,8.46
2022-10-21T01:52:36.265Z,8.49
2022-10-21T01:55:10.397Z,8.56
2022-10-21T01:57:43.881Z,8.57
2022-10-21T02:00:14.652Z,8.58
2022-10-21T02:02:48.157Z,8.55
2022-10-21T02:05:24.450Z,8.60
2022-10-21T02:07:56.208Z,8.62
2022-10-21T02:10:29.590Z,8.65
2022-10-21T02:13:03.297Z,8.65
2022-10-21T02:15:35.079Z,8.70
2022-10-21T02:18:08.596Z,8.66
2022-10-21T02:20:42.045Z,8.72
2022-10-21T02:23:15.681Z,8.76
2022-10-21T02:25:49.536Z,8.80
2022-10-21T02:28:21.065Z,8.76
2022-10-21T02:31:17.243Z,8.80
2022-10-21T02:34:02.822Z,8.86
2022-10-21T02:36:53.029Z,8.88
2022-10-21T02:39:41.541Z,8.90
2022-10-21T02:42:15.006Z,9.01
2022-10-21T02:44:45.409Z,8.98
2022-10-21T02:47:17.338Z,8.93
2022-10-21T02:49:49.023Z,8.96
2022-10-21T02:52:19.315Z,8.96
2022-10-21T02:54:49.803Z,9.02
2022-10-21T02:57:20.253Z,9.09
2022-10-21T02:59:50.587Z,9.06
2022-10-21T03:02:20.935Z,9.07
2022-10-21T03:04:51.250Z,9.09
2022-10-21T03:07:21.567Z,9.16
2022-10-21T03:09:51.934Z,9.26
2022-10-21T03:12:22.241Z,9.21
2022-10-21T03:14:52.554Z,9.17
2022-10-21T03:17:25.219Z,9.15
2022-10-21T03:19:54.980Z,9.16
2022-10-21T03:22:25.543Z,9.16
2022-10-21T03:24:55.909Z,9.24
2022-10-21T03:27:27.234Z,9.29
2022-10-21T03:29:57.706Z,9.16
2022-10-21T03:32:28.066Z,9.20
2022-10-21T03:34:58.490Z,9.26
2022-10-21T03:37:28.782Z,9.26
2022-10-21T03:39:59.157Z,9.22
2022-10-21T03:42:29.700Z,9.27
2022-10-21T03:45:00.021Z,9.28
2022-10-21T03:47:30.335Z,9.27
2022-10-21T03:50:00.704Z,9.20
2022-10-21T03:52:31.098Z,9.22
2022-10-21T03:55:01.531Z,9.27
2022-10-21T03:57:31.942Z,9.35
2022-10-21T04:00:02.343Z,9.38
2022-10-21T04:02:32.709Z,9.42
2022-10-21T04:05:03.031Z,9.31
2022-10-21T04:07:33.538Z,9.31
2022-10-21T04:10:04.499Z,9.26
2022-10-21T04:12:35.313Z,9.28
2022-10-21T04:15:07.553Z,9.24
2022-10-21T04:17:37.946Z,9.32
2022-10-21T04:20:09.212Z,9.34
2022-10-21T04:22:40.060Z,9.40
2022-10-21T04:25:10.863Z,9.35
2022-10-21T04:27:41.166Z,9.32
2022-10-21T04:30:11.951Z,9.33
2022-10-21T04:32:43.119Z,9.34
2022-10-21T04:35:13.581Z,9.30
2022-10-21T04:37:44.255Z,9.26
2022-10-21T04:40:14.704Z,9.28
2022-10-21T04:42:49.533Z,9.26
2022-10-21T04:45:20.237Z,9.34
2022-10-21T04:47:50.612Z,9.26
2022-10-21T04:50:20.956Z,9.31
2022-10-21T04:52:51.742Z,9.33
2022-10-21T04:55:22.127Z,9.38
2022-10-21T04:57:52.511Z,9.26
2022-10-21T05:00:23.377Z,9.24
2022-10-21T05:02:55.268Z,9.26
2022-10-21T05:05:25.755Z,9.27
2022-10-21T05:07:56.138Z,9.32
2022-10-21T05:10:26.453Z,9.37
2022-10-21T05:12:58.295Z,9.32
2022-10-21T05:15:28.926Z,9.36
2022-10-21T05:17:59.221Z,9.33
2022-10-21T05:20:29.767Z,9.28
2022-10-21T05:23:00.105Z,9.30
2022-10-21T05:25:34.100Z,9.36
2022-10-21T05:28:03.191Z,9.40
2022-10-21T05:30:33.650Z,9.36
2022-10-21T05:33:04.167Z,9.40
2022-10-21T05:35:34.656Z,9.38
2022-10-21T05:38:05.630Z,9.40
2022-10-21T05:40:36.390Z,9.43
2022-10-21T05:43:06.791Z,9.43
2022-10-21T05:45:37.193Z,9.44
2022-10-21T05:48:07.609Z,9.46
2022-10-21T05:50:37.990Z,9.46
2022-10-21T05:53:08.304Z,9.60
2022-10-21T05:55:38.966Z,9.61
2022-10-21T05:58:09.451Z,9.65
2022-10-21T06:00:40.279Z,9.59
2022-10-21T06:03:10.825Z,9.66
2022-10-21T06:05:41.230Z,9.66
2022-10-21T06:08:11.549Z,9.70
2022-10-21T06:10:42.437Z,9.72
2022-10-21T06:13:12.863Z,9.76
2022-10-21T06:15:47.417Z,9.83
2022-10-21T06:18:15.269Z,9.82
2022-10-21T06:20:45.677Z,9.80
2022-10-21T06:23:16.381Z,9.82
2022-10-21T06:26:01.578Z,9.78
2022-10-21T06:28:34.318Z,9.77
2022-10-21T06:31:05.405Z,9.86
2022-10-21T06:33:36.112Z,9.74
2022-10-21T06:36:06.939Z,9.76
2022-10-21T06:38:38.315Z,9.76
2022-10-21T06:41:13.221Z,9.66
2022-10-21T06:43:43.769Z,9.66
2022-10-21T06:46:16.543Z,9.74
2022-10-21T06:48:46.941Z,9.64
2022-10-21T06:51:22.115Z,9.64
2022-10-21T06:53:59.881Z,9.72
2022-10-21T06:56:31.806Z,9.74
2022-10-21T06:59:02.521Z,9.82
2022-10-21T07:01:55.293Z,9.92
2022-10-21T07:04:08.782Z,9.92
2022-10-21T07:06:39.607Z,9.86
2022-10-21T07:09:26.965Z,10.01
2022-10-21T07:11:58.910Z,10.00
2022-10-21T07:14:29.479Z,10.10
2022-10-21T07:17:00.076Z,10.11
2022-10-21T07:19:30.588Z,10.19
2022-10-21T07:22:01.513Z,10.22
2022-10-21T07:24:31.980Z,10.32
2022-10-21T07:27:02.736Z,10.28
2022-10-21T07:29:33.137Z,10.35
2022-10-21T07:32:03.721Z,10.36
2022-10-21T07:34:34.062Z,10.50
2022-10-21T07:37:25.894Z,10.46
2022-10-21T07:39:56.893Z,10.31
2022-10-21T07:42:29.382Z,10.37
2022-10-21T07:45:01.562Z,10.41
2022-10-21T07:47:31.960Z,10.52
2022-10-21T07:50:02.570Z,10.76
2022-10-21T07:52:35.316Z,10.96
2022-10-21T07:55:05.646Z,11.34
2022-10-21T07:57:36.072Z,11.12
2022-10-21T08:00:08.191Z,11.04
2022-10-21T08:02:39.517Z,11.07
2022-10-21T08:05:10.535Z,11.09
2022-10-21T08:07:40.964Z,10.96
2022-10-21T08:10:11.428Z,11.13
2022-10-21T08:12:41.917Z,11.07
2022-10-21T08:15:12.460Z,11.11
2022-10-21T08:17:42.839Z,11.10
2022-10-21T08:20:13.516Z,11.12
2022-10-21T08:22:43.937Z,11.04
2022-10-21T08:25:15.973Z,11.03
2022-10-21T08:27:46.393Z,11.08
2022-10-21T08:30:16.843Z,11.12
2022-10-21T08:32:47.248Z,11.29
2022-10-21T08:35:17.651Z,11.38
2022-10-21T08:37:49.791Z,11.48
2022-10-21T08:40:21.319Z,11.51
2022-10-21T08:42:51.813Z,11.58
2022-10-21T08:45:28.374Z,11.68
2022-10-21T08:48:01.832Z,11.91
2022-10-21T08:50:40.761Z,12.17
2022-10-21T08:53:17.195Z,12.50
2022-10-21T08:55:47.672Z,12.62
2022-10-21T08:58:23.937Z,12.90
2022-10-21T09:01:06.266Z,13.08
2022-10-21T09:03:42.591Z,12.76
2022-10-21T09:06:30.822Z,12.63
2022-10-21T09:09:19.199Z,12.48
2022-10-21T09:11:56.087Z,12.56
2022-10-21T09:14:35.511Z,12.46
2022-10-21T09:17:09.124Z,12.51
2022-10-21T09:19:51.281Z,12.56
2022-10-21T09:22:35.847Z,12.64
2022-10-21T09:25:11.658Z,12.72
2022-10-21T09:27:55.385Z,13.68
2022-10-21T09:30:21.732Z,14.00
2022-10-21T09:32:57.758Z,14.95
2022-10-21T09:35:49.320Z,14.74
2022-10-21T09:38:29.954Z,14.62
2022-10-21T09:41:02.485Z,14.30
2022-10-21T09:43:33.023Z,13.58
2022-10-21T09:46:04.989Z,13.60
2022-10-21T09:51:25.343Z,13.70
2022-10-21T09:54:01.315Z,13.57
2022-10-21T09:56:43.446Z,13.94
2022-10-21T09:59:17.584Z,14.04
2022-10-21T10:01:49.707Z,14.04
2022-10-21T10:04:29.097Z,14.08
2022-10-21T10:07:02.684Z,14.50
2022-10-21T10:09:36.532Z,14.45
2022-10-21T10:12:19.116Z,14.49
2022-10-21T10:14:49.958Z,14.40
2022-10-21T10:17:32.179Z,14.58
2022-10-21T10:20:08.484Z,15.44
2022-10-21T10:22:44.249Z,15.31
2022-10-21T10:25:21.700Z,15.80
2022-10-21T10:27:55.155Z,15.26
2022-10-21T10:30:27.894Z,15.39
2022-10-21T10:32:58.844Z,15.52
2022-10-21T10:35:35.299Z,15.47
2022-10-21T10:38:07.670Z,15.28
2022-10-21T10:40:42.116Z,15.14
2022-10-21T10:43:18.234Z,15.23
2022-10-21T10:45:51.648Z,15.64
2022-10-21T10:48:28.076Z,16.00
2022-10-21T10:50:58.551Z,16.13
2022-10-21T10:53:34.848Z,16.30
2022-10-21T10:56:25.516Z,16.23
2022-10-21T10:59:16.804Z,16.57
2022-10-21T11:02:12.094Z,16.23
2022-10-21T11:04:57.222Z,16.99
2022-10-21T11:07:58.063Z,16.75
2022-10-21T11:10:46.594Z,17.06
2022-10-21T11:13:19.931Z,16.89
2022-10-21T11:16:19.193Z,17.01
2022-10-21T11:18:52.685Z,16.76
2022-10-21T11:21:45.527Z,16.19
2022-10-21T11:24:24.669Z,16.02
2022-10-21T11:27:08.238Z,15.83
2022-10-21T11:29:48.690Z,15.49
2022-10-21T11:32:39.817Z,15.54
2022-10-21T11:35:25.179Z,15.83
2022-10-21T11:38:24.182Z,15.94
2022-10-21T11:41:06.524Z,16.01
2022-10-21T11:43:40.140Z,16.06
2022-10-21T11:46:22.548Z,15.86
2022-10-21T11:49:14.353Z,15.94
2022-10-21T11:51:56.599Z,15.70
2022-10-21T11:55:10.578Z,15.82
2022-10-21T11:57:45.913Z,15.96
2022-10-21T12:00:25.400Z,16.36
2022-10-21T12:03:15.540Z,16.80
2022-10-21T12:06:00.209Z,17.01
2022-10-21T12:08:38.358Z,16.68
2022-10-21T12:11:14.553Z,16.78
2022-10-21T12:13:50.704Z,16.94
2022-10-21T12:16:33.154Z,16.83
2022-10-21T12:19:09.161Z,16.85
2022-10-21T12:21:42.775Z,17.04
2022-10-21T12:24:39.579Z,16.66
2022-10-21T12:27:36.881Z,16.26
2022-10-21T12:30:31.862Z,16.19
2022-10-21T12:33:06.487Z,16.18
2022-10-21T12:35:50.376Z,15.94
2022-10-21T12:38:23.963Z,15.70
2022-10-21T12:41:26.432Z,15.82
2022-10-21T12:44:05.594Z,15.85
2022-10-21T12:46:47.882Z,15.82
2022-10-21T12:49:21.337Z,15.67
2022-10-21T12:52:06.689Z,15.62
2022-10-21T12:54:40.154Z,15.60
2022-10-21T12:57:13.732Z,15.62
2022-10-21T12:59:44.739Z,15.66
2022-10-21T13:02:24.207Z,15.58
2022-10-21T13:04:57.385Z,15.62
2022-10-21T13:07:32.900Z,15.56
2022-10-21T13:10:08.102Z,15.58
2022-10-21T13:12:39.044Z,15.50
2022-10-21T13:15:24.699Z,15.42
2022-10-21T13:17:56.897Z,15.43
2022-10-21T13:20:34.758Z,15.46
2022-10-21T13:23:31.806Z,15.40
2022-10-21T13:26:08.188Z,15.35
2022-10-21T13:28:38.650Z,15.22
2022-10-21T13:31:09.106Z,15.23
2022-10-21T13:33:40.352Z,15.12
2022-10-21T13:36:14.126Z,15.08
2022-10-21T13:38:53.697Z,15.02
2022-10-21T13:41:29.989Z,15.02
2022-10-21T13:44:03.248Z,15.00
2022-10-21T13:46:42.540Z,14.96
2022-10-21T13:49:29.350Z,14.88
2022-10-21T13:51:59.744Z,14.84
2022-10-21T13:54:33.277Z,14.86
2022-10-21T13:57:11.301Z,14.81
2022-10-21T13:59:41.726Z,14.90
2022-10-21T14:02:23.694Z,14.84
2022-10-21T14:04:54.048Z,14.91
2022-10-21T14:07:24.859Z,14.88
2022-10-21T14:09:58.652Z,14.83
2022-10-21T14:12:38.149Z,14.83
2022-10-21T14:15:19.549Z,14.86
2022-10-21T14:17:56.372Z,14.84
2022-10-21T14:20:31.479Z,14.74
2022-10-21T14:23:04.610Z,14.72
2022-10-21T14:25:35.496Z,14.83
2022-10-21T14:28:06.360Z,14.68
2022-10-21T14:30:37.391Z,14.67
2022-10-21T14:33:13.235Z,14.62
2022-10-21T14:35:43.728Z,14.58
2022-10-21T14:38:29.487Z,14.60
2022-10-21T14:41:02.938Z,14.46
2022-10-21T14:43:36.319Z,14.53
2022-10-21T14:46:09.326Z,14.40
2022-10-21T14:48:54.871Z,14.44
2022-10-21T14:51:26.030Z,14.39
2022-10-21T14:54:05.472Z,14.42
2022-10-21T14:56:40.478Z,14.34
2022-10-21T14:59:25.767Z,14.42
2022-10-21T15:01:58.939Z,14.38
2022-10-21T15:04:44.595Z,14.30
2022-10-21T15:07:30.347Z,14.32
2022-10-21T15:10:07.305Z,14.20
2022-10-21T15:12:46.053Z,14.25
2022-10-21T15:15:36.298Z,14.25
2022-10-21T15:18:13.124Z,14.25
2022-10-21T15:21:05.007Z,14.22
2022-10-21T15:23:53.840Z,14.24
2022-10-21T15:26:39.144Z,14.22
2022-10-21T15:29:15.414Z,14.18
2022-10-21T15:31:45.832Z,14.14
2022-10-21T15:34:17.335Z,14.12
2022-10-21T15:36:47.975Z,14.12
2022-10-21T15:39:18.446Z,14.18
2022-10-21T15:41:53.883Z,14.01
2022-10-21T15:44:35.028Z,14.00
2022-10-21T15:47:07.090Z,14.07
2022-10-21T15:49:41.178Z,13.98
2022-10-21T15:52:11.738Z,14.03
2022-10-21T15:54:42.700Z,13.98
2022-10-21T15:57:21.247Z,13.97
2022-10-21T15:59:51.650Z,13.97
2022-10-21T16:02:22.087Z,13.99
2022-10-21T16:04:54.136Z,13.95
2022-10-21T16:07:29.275Z,13.96
2022-10-21T16:09:59.713Z,13.88
2022-10-21T16:12:31.004Z,13.90
2022-10-21T16:15:01.541Z,13.90
2022-10-21T16:17:32.533Z,13.87
2022-10-21T16:20:03.326Z,13.83
2022-10-21T16:22:33.750Z,13.87
2022-10-21T16:25:04.682Z,13.82
2022-10-21T16:27:44.091Z,13.84
2022-10-21T16:30:19.235Z,13.80
2022-10-21T16:32:51.172Z,13.77
2022-10-21T16:35:22.691Z,13.80
2022-10-21T16:37:53.749Z,13.79
2022-10-21T16:40:31.623Z,13.80
2022-10-21T16:43:02.411Z,13.81
2022-10-21T16:45:33.982Z,13.78
2022-10-21T16:48:05.717Z,13.81
2022-10-21T16:50:41.494Z,13.85
2022-10-21T16:53:16.952Z,13.86
2022-10-21T16:55:54.057Z,14.00
2022-10-21T16:58:26.657Z,13.93
2022-10-21T17:00:58.308Z,13.91
2022-10-21T17:03:28.696Z,13.92
2022-10-21T17:05:59.201Z,13.85
2022-10-21T17:08:29.797Z,13.82
2022-10-21T17:11:00.198Z,13.76
2022-10-21T17:13:30.621Z,13.57
2022-10-21T17:16:01.026Z,13.58
2022-10-21T17:18:31.435Z,13.49
2022-10-21T17:21:01.875Z,13.46
2022-10-21T17:23:32.603Z,13.52
2022-10-21T17:26:03.057Z,13.46
2022-10-21T17:28:33.557Z,13.47
2022-10-21T17:31:04.047Z,13.48
2022-10-21T17:33:34.348Z,13.48
2022-10-21T17:36:05.091Z,13.46
2022-10-21T17:38:35.673Z,13.49
2022-10-21T17:41:06.365Z,13.50
2022-10-21T17:43:37.435Z,13.52
2022-10-21T17:46:08.925Z,13.54
2022-10-21T17:48:39.315Z,13.52
2022-10-21T17:51:10.531Z,13.60
2022-10-21T17:53:40.930Z,13.72
2022-10-21T17:56:13.134Z,13.60
2022-10-21T17:58:43.546Z,13.74
2022-10-21T18:01:14.728Z,13.64
2022-10-21T18:03:45.352Z,13.55
2022-10-21T18:06:16.624Z,13.52
2022-10-21T18:08:47.021Z,13.54
2022-10-21T18:11:19.633Z,13.52
2022-10-21T18:13:53.616Z,13.46
2022-10-21T18:16:23.667Z,13.48
2022-10-21T18:18:57.246Z,13.52
2022-10-21T18:21:26.114Z,13.44
2022-10-21T18:23:57.187Z,13.46
2022-10-21T18:26:32.076Z,13.42
2022-10-21T18:29:11.385Z,13.38
2022-10-21T18:31:41.697Z,13.40
2022-10-21T18:34:13.089Z,13.40
2022-10-21T18:36:43.541Z,13.36
2022-10-21T18:39:14.347Z,13.39
2022-10-21T18:41:44.803Z,13.40
2022-10-21T18:44:15.520Z,13.39
2022-10-21T18:46:48.484Z,13.40
2022-10-21T18:49:19.205Z,13.42
2022-10-21T18:51:49.602Z,13.54
2022-10-21T18:54:20.311Z,13.50
2022-10-21T18:56:50.737Z,13.54
2022-10-21T18:59:21.313Z,13.47
2022-10-21T19:01:53.398Z,13.54
2022-10-21T19:04:24.546Z,13.52
2022-10-21T19:06:54.852Z,13.54
2022-10-21T19:09:26.232Z,13.51
2022-10-21T19:11:58.340Z,13.51
2022-10-21T19:14:30.143Z,13.52
2022-10-21T19:17:01.372Z,13.48
2022-10-21T19:19:34.799Z,13.49
2022-10-21T19:22:04.099Z,13.49
2022-10-21T19:24:34.554Z,13.50
2022-10-21T19:27:05.041Z,13.44
2022-10-21T19:29:35.508Z,13.48
2022-10-21T19:32:06.099Z,13.51
2022-10-21T19:34:36.666Z,13.56
2022-10-21T19:37:08.991Z,13.52
2022-10-21T19:39:39.587Z,13.55
2022-10-21T19:42:09.919Z,13.58
2022-10-21T19:44:40.357Z,13.56
2022-10-21T19:47:10.796Z,13.60
2022-10-21T19:49:41.411Z,13.56
2022-10-21T19:52:11.906Z,13.58
2022-10-21T19:54:42.373Z,13.58
2022-10-21T19:57:12.731Z,13.63
2022-10-21T19:59:46.116Z,13.54
2022-10-21T20:02:16.575Z,13.54
2022-10-21T20:04:47.331Z,13.57
2022-10-21T20:07:17.736Z,13.55
2022-10-21T20:09:48.205Z,13.58
2022-10-21T20:12:18.592Z,13.58
2022-10-21T20:14:49.003Z,13.57
2022-10-21T20:17:19.441Z,13.56
2022-10-21T20:19:50.733Z,13.60
2022-10-21T20:22:21.089Z,13.58
2022-10-21T20:24:53.050Z,13.54
2022-10-21T20:27:23.658Z,13.57
2022-10-21T20:29:54.050Z,13.53
2022-10-21T20:32:24.470Z,13.54
2022-10-21T20:34:54.901Z,13.54
2022-10-21T20:37:25.295Z,13.55
2022-10-21T20:39:55.760Z,13.53
2022-10-21T20:42:26.084Z,13.64
2022-10-21T20:44:56.552Z,13.59
2022-10-21T20:47:30.118Z,13.56
2022-10-21T20:49:59.175Z,13.59
2022-10-21T20:52:29.553Z,13.52
2022-10-21T20:55:00.042Z,13.53
2022-10-21T20:57:31.538Z,13.50
2022-10-21T21:00:01.998Z,13.52
2022-10-21T21:02:32.386Z,13.56
2022-10-21T21:05:02.689Z,13.53
2022-10-21T21:07:33.210Z,13.55
2022-10-21T21:10:04.187Z,13.60
2022-10-21T21:12:34.631Z,13.56
2022-10-21T21:15:05.314Z,13.78
2022-10-21T21:17:35.826Z,13.70
2022-10-21T21:20:07.064Z,13.63
2022-10-21T21:22:37.880Z,13.70
2022-10-21T21:25:09.890Z,13.84
2022-10-21T21:27:40.291Z,13.74
2022-10-21T21:30:11.377Z,13.71
2022-10-21T21:32:42.090Z,13.79
2022-10-21T21:35:12.788Z,13.72
2022-10-21T21:37:43.174Z,13.68
2022-10-21T21:40:13.748Z,13.68
2022-10-21T21:42:44.342Z,13.72
2022-10-21T21:45:14.763Z,13.70
2022-10-21T21:47:45.398Z,13.76
2022-10-21T21:50:15.796Z,13.70
2022-10-21T21:52:46.638Z,13.71
2022-10-21T21:55:17.196Z,13.65
2022-10-21T21:57:47.656Z,13.66
2022-10-21T22:00:18.056Z,13.65
2022-10-21T22:02:48.406Z,13.64
2022-10-21T22:05:22.463Z,13.66
2022-10-21T22:07:52.209Z,13.53
2022-10-21T22:10:22.543Z,13.50
2022-10-21T22:12:53.115Z,13.50
2022-10-21T22:15:46.912Z,13.46
2022-10-21T22:17:59.558Z,13.42
2022-10-21T22:20:30.013Z,13.42
2022-10-21T22:23:00.403Z,13.38
2022-10-21T22:25:30.728Z,13.36
2022-10-21T22:28:01.291Z,13.38
2022-10-21T22:30:31.691Z,13.42
2022-10-21T22:33:02.026Z,13.44
2022-10-21T22:35:32.583Z,13.48
2022-10-21T22:38:03.075Z,13.49
2022-10-21T22:40:34.325Z,13.49
2022-10-21T22:43:04.715Z,13.55
2022-10-21T22:45:35.221Z,13.54
2022-10-21T22:48:05.958Z,13.54
2022-10-21T22:50:36.462Z,13.59
2022-10-21T22:53:07.067Z,13.56
2022-10-21T22:55:39.244Z,13.74
2022-10-21T22:58:15.638Z,13.59
2022-10-21T23:00:46.657Z,13.63
2022-10-21T23:03:18.035Z,13.53
2022-10-21T23:05:49.306Z,13.55
2022-10-21T23:08:20.178Z,13.64
2022-10-21T23:10:50.615Z,13.63
2022-10-21T23:13:21.002Z,13.58
2022-10-21T23:15:51.420Z,13.55
2022-10-21T23:18:21.815Z,13.60
2022-10-21T23:20:52.196Z,13.62
2022-10-21T23:23:23.684Z,13.69
2022-10-21T23:25:54.116Z,13.58
2022-10-21T23:28:24.869Z,13.52
2022-10-21T23:30:55.578Z,13.57
2022-10-21T23:33:26.495Z,13.56
2022-10-21T23:35:57.555Z,13.51
2022-10-21T23:38:27.953Z,13.52
2022-10-21T23:40:58.340Z,13.48
2022-10-21T23:43:28.690Z,13.40
2022-10-21T23:45:59.218Z,13.36
2022-10-21T23:48:29.660Z,13.32
2022-10-21T23:51:00.117Z,13.30
2022-10-21T23:53:30.794Z,13.26
2022-10-21T23:56:01.221Z,13.28
2022-10-21T23:58:31.767Z,13.27
